Flight Track Log - Related Links

Times and Time Zones

All times are in EDT time to prevent confusion due to time zone crossing. See the NASA917 flight status page for this flight to view local times or setup timezone preferences in your user account.

Time Position Orientation Groundspeed Altitude Reporting Facility
EDT Latitude Longitude Course Direction KTS MPH feet Rate Location/Type
Fri 03:14:56 PM 36.1519 -94.3181 191° South 326 375 7,600  Level Memphis Center
Fri 03:15:56 PM 36.0558 -94.3314 186° South 352 405 12,200 4,250 Climbing Memphis Center
Fri 03:16:56 PM 35.9469 -94.3467 186° South 374 430 16,100 3,600 Climbing Memphis Center
Fri 03:18:56 PM 35.7353 -94.3747 186° South 410 472 23,000 3,033 Climbing Memphis Center
Fri 03:19:56 PM 35.6158 -94.3919 187° South 416 479 25,200 2,000 Climbing Memphis Center
Fri 03:20:00 PM 35.7101 -94.3860 191° South  Level Estimated
Fri 03:20:56 PM 35.4903 -94.4089 186° South 439 505 27,000  Level Memphis Center
Fri 03:21:56 PM 35.3519 -94.4275 186° South 471 542 27,000  Level Memphis Center
Fri 03:22:56 PM 35.2033 -94.4458 186° South 517 595 27,000  Level Memphis Center
Fri 03:23:30 PM 35.1169 -94.4567 186° South 541 623 27,000  Level Fort Worth Center
Fri 03:24:30 PM 34.9736 -94.4794 187° South 547 629 27,000  Level Fort Worth Center
Fri 03:25:30 PM 34.8133 -94.5000 186° South 537 618 27,000  Level Fort Worth Center
Fri 03:26:30 PM 34.6700 -94.5225 187° South 532 612 27,000  Level Fort Worth Center
Fri 03:27:30 PM 34.5267 -94.5425 187° South 532 612 27,000  Level Fort Worth Center
Fri 03:28:30 PM 34.3831 -94.5575 185° South 527 606 27,000  Level Fort Worth Center
Fri 03:29:30 PM 34.2414 -94.5772 187° South 521 600 27,000  Level Fort Worth Center
Fri 03:30:30 PM 34.0981 -94.5969 187° South 521 600 27,000  Level Fort Worth Center
Fri 03:31:30 PM 33.9564 -94.6139 186° South 521 600 27,000  Level Fort Worth Center
Fri 03:32:30 PM 33.8131 -94.6361 187° South 521 600 27,000  Level Fort Worth Center
Fri 03:33:30 PM 33.6694 -94.6556 186° South 521 600 27,000  Level Fort Worth Center
Fri 03:34:30 PM 33.5278 -94.6725 186° South 521 600 27,000  Level Fort Worth Center
Fri 03:35:30 PM 33.3822 -94.6894 186° South 521 600 27,000  Level Fort Worth Center
Fri 03:36:30 PM 33.2406 -94.7061 186° South 521 600 27,000  Level Fort Worth Center
Fri 03:37:30 PM 33.0989 -94.7253 186° South 521 600 27,000  Level Fort Worth Center
Fri 03:38:30 PM 32.9575 -94.7444 186° South 521 600 27,000  Level Fort Worth Center
Fri 03:39:30 PM 32.8264 -94.7583 185° South 521 600 27,000  Level Fort Worth Center
Fri 03:40:30 PM 32.6847 -94.7747 186° South 521 600 27,000  Level Fort Worth Center
Fri 03:41:30 PM 32.5411 -94.7939 186° South 521 600 27,000  Level Fort Worth Center
Fri 03:42:30 PM 32.3975 -94.8128 186° South 521 600 27,000  Level Fort Worth Center
Fri 03:43:30 PM 32.2517 -94.8292 185° South 521 600 27,000  Level Fort Worth Center
Fri 03:44:30 PM 32.1142 -94.8528 188° South 515 593 27,000  Level Fort Worth Center
Fri 03:45:30 PM 31.9706 -94.8714 186° South 520 598 27,000  Level Fort Worth Center
Fri 03:46:30 PM 31.8292 -94.8900 186° South 520 598 27,000  Level Fort Worth Center
Fri 03:48:59 PM 31.4531 -94.9344 186° South 524 603 27,000 28 Level Houston Center
Fri 03:50:01 PM 31.3117 -94.9233 176° South 517 595 27,100  Climbing Houston Center
Fri 03:51:03 PM 31.1750 -94.8686 161° South 538 619 27,000 -48 Descending Houston Center
Fri 03:52:05 PM 31.0439 -94.7944 154° Southeast 538 619 27,000 48 Level Houston Center
Fri 03:53:07 PM 30.8844 -94.7119 156° South 528 608 27,100  Climbing Houston Center
Fri 03:54:09 PM 30.7486 -94.6447 157° South 529 609 27,000 -774 Descending Houston Center
Fri 03:55:11 PM 30.6139 -94.5739 156° South 531 611 25,500 -2,160 Descending Houston Center
Fri 03:56:14 PM 30.4697 -94.5808 182° South 541 623 22,500 -3,317 Descending Houston Center
Fri 03:57:14 PM 30.3650 -94.7158 228° Southwest 492 566 18,700 -3,769 Descending Houston Center
Fri 03:58:15 PM 30.2900 -94.8319 233° Southwest 419 482 14,900 -3,190 Descending Houston Center
Fri 03:59:20 PM 30.2425 -94.9147 236° Southwest 319 367 12,000 -1,333 Descending Houston Center
Fri 04:00:30 PM 30.1656 -95.0264 231° Southwest 377 434 11,900 -1,009 Descending Houston Center
Fri 04:01:13 PM 30.1036 -95.0847 219° Southwest 395 455 10,100 -931 Descending Houston Center
Fri 04:02:26 PM 29.9856 -95.1378 201° Southwest 384 442 10,100 -627 Level Houston Center
Fri 04:03:27 PM 29.8814 -95.1797 199° South 367 422 8,700 -1,056 Descending Houston Center
Fri 04:04:31 PM 29.7997 -95.2153 201° Southwest 353 406 7,900 -1,377 Descending Houston Center
Fri 04:05:29 PM 29.7261 -95.1794 157° South 288 331 5,900 -3,080 Descending Houston Center
Fri 04:06:24 PM 29.6803 -95.1611 161° South 268 308 2,100 -2,016 Descending Houston Center
Fri 04:07:37 PM 29.5897 -95.1622 181° South 287 330 1,600 -732 Descending Houston Center
Fri 04:08:27 PM 29.6375 -95.1542 North 186 214 600 10,839 Descending Houston Center
Fri 04:09:41 PM 29.5992 -95.1633 192° South 50 58 24,000 18,973 Climbing Houston Center
Fri 04:11:00 PM 29.6000 -95.1500 170° South  Level FlightAware Approximate

Login

Don't have an account? Register now (free) for customized features, flight alerts, and more!